createdAt,value
2019-04-28T00:02:45.329Z,101488.56
2019-04-28T00:05:34.767Z,101487.37
2019-04-28T00:08:24.213Z,101491.96
2019-04-28T00:11:13.341Z,101493.80
2019-04-28T00:14:02.959Z,101493.91
2019-04-28T00:16:52.410Z,101498.86
2019-04-28T00:19:42.324Z,101492.75
2019-04-28T00:22:49.340Z,101499.05
2019-04-28T00:25:43.535Z,101504.91
2019-04-28T00:28:33.570Z,101505.41
2019-04-28T00:31:23.479Z,101505.95
2019-04-28T00:34:12.387Z,101508.72
2019-04-28T00:37:18.232Z,101509.16
2019-04-28T00:40:10.990Z,101513.75
2019-04-28T00:43:00.892Z,101522.17
2019-04-28T00:45:52.099Z,101522.17
2019-04-28T00:48:41.235Z,101521.27
2019-04-28T00:51:31.328Z,101520.83
2019-04-28T00:54:21.853Z,101522.17
2019-04-28T00:57:11.572Z,101527.45
2019-04-28T01:00:02.406Z,101529.16
2019-04-28T01:02:52.459Z,101527.39
2019-04-28T01:05:42.023Z,101533.64
2019-04-28T01:08:31.182Z,101531.77
2019-04-28T01:11:23.621Z,101535.77
2019-04-28T01:14:13.045Z,101528.61
2019-04-28T01:17:09.813Z,101529.03
2019-04-28T01:20:01.022Z,101528.14
2019-04-28T01:22:49.998Z,101523.70
2019-04-28T01:25:40.105Z,101532.97
2019-04-28T01:28:30.063Z,101530.69
2019-04-28T01:31:29.503Z,101527.16
2019-04-28T01:34:21.203Z,101527.11
2019-04-28T01:37:10.616Z,101531.17
2019-04-28T01:39:59.757Z,101528.50
2019-04-28T01:42:49.990Z,101522.69
2019-04-28T01:45:39.771Z,101520.92
2019-04-28T01:48:31.504Z,101519.17
2019-04-28T01:51:20.952Z,101519.17
2019-04-28T01:54:11.730Z,101511.16
2019-04-28T01:57:01.495Z,101521.83
2019-04-28T01:59:51.487Z,101517.83
2019-04-28T02:02:40.844Z,101523.64
2019-04-28T02:05:30.682Z,101526.70
2019-04-28T02:08:21.555Z,101526.75
2019-04-28T02:11:11.144Z,101525.83
2019-04-28T02:14:00.886Z,101525.05
2019-04-28T02:16:50.466Z,101523.70
2019-04-28T02:19:41.042Z,101529.11
2019-04-28T02:22:55.469Z,101528.72
2019-04-28T02:25:44.704Z,101529.58
2019-04-28T02:28:33.667Z,101539.83
2019-04-28T02:31:24.382Z,101538.16
2019-04-28T02:34:13.946Z,101536.83
2019-04-28T02:37:03.434Z,101542.16
2019-04-28T02:39:53.188Z,101550.19
2019-04-28T02:42:42.723Z,101548.91
2019-04-28T02:45:32.259Z,101555.13
2019-04-28T02:48:25.297Z,101565.80
2019-04-28T02:51:22.108Z,101563.58
2019-04-28T02:54:10.955Z,101557.85
2019-04-28T02:57:01.386Z,101556.47
2019-04-28T02:59:51.407Z,101552.05
2019-04-28T03:02:41.613Z,101549.80
2019-04-28T03:05:33.474Z,101556.91
2019-04-28T03:08:22.255Z,101548.91
2019-04-28T03:11:11.405Z,101551.63
2019-04-28T03:14:01.057Z,101552.47
2019-04-28T03:16:51.062Z,101553.33
2019-04-28T03:19:41.562Z,101552.05
2019-04-28T03:22:33.627Z,101554.30
2019-04-28T03:25:41.036Z,101563.58
2019-04-28T03:28:51.176Z,101561.38
2019-04-28T03:32:10.104Z,101559.19
2019-04-28T03:34:44.412Z,101559.19
2019-04-28T03:37:34.306Z,101560.05
2019-04-28T03:40:23.962Z,101556.52
2019-04-28T03:43:14.176Z,101557.85
2019-04-28T03:46:10.580Z,101555.58
2019-04-28T03:49:00.802Z,101555.58
2019-04-28T03:51:50.654Z,101552.91
2019-04-28T03:54:41.030Z,101553.85
2019-04-28T03:57:31.553Z,101558.23
2019-04-28T04:00:22.026Z,101552.05
2019-04-28T04:03:12.266Z,101560.47
2019-04-28T04:06:01.591Z,101563.58
2019-04-28T04:08:50.657Z,101566.72
2019-04-28T04:11:45.929Z,101565.43
2019-04-28T04:14:44.186Z,101572.05
2019-04-28T04:17:41.289Z,101573.38
2019-04-28T04:20:31.252Z,101572.05
2019-04-28T04:23:23.113Z,101572.09
2019-04-28T04:26:11.804Z,101570.34
2019-04-28T04:29:01.537Z,101585.85
2019-04-28T04:31:51.272Z,101586.29
2019-04-28T04:34:41.297Z,101590.29
2019-04-28T04:37:30.937Z,101587.62
2019-04-28T04:40:21.040Z,101592.95
2019-04-28T04:43:11.457Z,101592.09
2019-04-28T04:46:22.820Z,101598.71
2019-04-28T04:49:12.626Z,101604.91
2019-04-28T04:52:02.165Z,101607.13
2019-04-28T04:54:52.009Z,101607.57
2019-04-28T04:57:41.476Z,101608.84
2019-04-28T05:00:40.436Z,101608.84
2019-04-28T05:03:33.696Z,101617.69
2019-04-28T05:06:35.583Z,101610.97
2019-04-28T05:09:25.157Z,101614.45
2019-04-28T05:12:14.221Z,101612.25
2019-04-28T05:15:04.755Z,101619.34
2019-04-28T05:17:54.680Z,101621.05
2019-04-28T05:20:43.645Z,101620.20
2019-04-28T05:23:46.436Z,101629.53
2019-04-28T05:26:35.987Z,101631.28
2019-04-28T05:29:26.735Z,101628.62
2019-04-28T05:32:16.104Z,101634.38
2019-04-28T05:35:05.911Z,101633.43
2019-04-28T05:37:55.591Z,101637.80
2019-04-28T05:40:44.497Z,101634.11
2019-04-28T05:43:34.329Z,101635.75
2019-04-28T05:46:24.141Z,101636.51
2019-04-28T05:49:24.097Z,101640.37
2019-04-28T05:52:40.310Z,101636.71
2019-04-28T05:55:41.862Z,101636.63
2019-04-28T05:58:43.405Z,101638.77
2019-04-28T06:01:50.652Z,101636.52
2019-04-28T06:04:40.505Z,101640.42
2019-04-28T06:07:38.266Z,101647.45
2019-04-28T06:10:27.509Z,101656.21
2019-04-28T06:13:17.328Z,101651.66
2019-04-28T06:16:06.986Z,101665.31
2019-04-28T06:18:56.255Z,101670.43
2019-04-28T06:21:45.375Z,101676.02
2019-04-28T06:24:34.935Z,101682.47
2019-04-28T06:27:24.469Z,101681.44
2019-04-28T06:30:13.369Z,101693.77
2019-04-28T06:33:07.955Z,101701.28
2019-04-28T06:35:53.091Z,101695.41
2019-04-28T06:38:42.655Z,101695.35
2019-04-28T06:41:32.259Z,101702.39
2019-04-28T06:44:22.020Z,101711.14
2019-04-28T06:47:11.698Z,101708.34
2019-04-28T06:50:01.408Z,101707.25
2019-04-28T06:52:50.341Z,101709.61
2019-04-28T06:55:39.824Z,101705.73
2019-04-28T06:58:29.871Z,101707.17
2019-04-28T07:01:19.083Z,101706.75
2019-04-28T07:04:10.862Z,101713.84
2019-04-28T07:07:00.668Z,101710.72
2019-04-28T07:09:49.734Z,101714.78
2019-04-28T07:12:58.104Z,101710.43
2019-04-28T07:15:48.016Z,101716.61
2019-04-28T07:18:37.907Z,101713.97
2019-04-28T07:21:59.036Z,101717.09
2019-04-28T07:24:48.580Z,101714.98
2019-04-28T07:27:37.960Z,101721.25
2019-04-28T07:30:28.345Z,101721.84
2019-04-28T07:33:17.437Z,101728.72
2019-04-28T07:36:07.828Z,101725.36
2019-04-28T07:38:57.551Z,101729.18
2019-04-28T07:41:46.696Z,101731.11
2019-04-28T07:44:35.442Z,101730.46
2019-04-28T07:47:25.060Z,101731.02
2019-04-28T07:50:14.380Z,101746.20
2019-04-28T07:53:12.856Z,101741.31
2019-04-28T07:56:01.856Z,101750.83
2019-04-28T07:58:51.552Z,101755.53
2019-04-28T08:01:41.212Z,101758.55
2019-04-28T08:04:31.021Z,101749.44
2019-04-28T08:07:20.387Z,101761.84
2019-04-28T08:10:10.498Z,101761.64
2019-04-28T08:12:59.216Z,101766.38
2019-04-28T08:15:48.939Z,101765.78
2019-04-28T08:18:37.746Z,101769.00
2019-04-28T08:21:27.422Z,101771.33
2019-04-28T08:24:17.238Z,101773.64
2019-04-28T08:27:06.506Z,101775.52
2019-04-28T08:29:58.705Z,101772.50
2019-04-28T08:32:54.921Z,101779.77
2019-04-28T08:35:44.412Z,101784.47
2019-04-28T08:38:38.956Z,101779.89
2019-04-28T08:41:28.195Z,101786.59
2019-04-28T08:44:17.674Z,101789.69
2019-04-28T08:47:06.303Z,101791.85
2019-04-28T08:49:56.015Z,101792.70
2019-04-28T08:52:45.003Z,101796.66
2019-04-28T08:55:35.030Z,101802.36
2019-04-28T08:58:26.812Z,101808.06
2019-04-28T09:01:16.347Z,101811.12
2019-04-28T09:04:15.130Z,101816.00
2019-04-28T09:06:56.994Z,101809.70
2019-04-28T09:09:46.831Z,101821.22
2019-04-28T09:12:39.751Z,101820.36
2019-04-28T09:15:29.647Z,101828.72
2019-04-28T09:18:19.562Z,101829.53
2019-04-28T09:21:09.216Z,101835.61
2019-04-28T09:23:59.000Z,101844.41
2019-04-28T09:26:49.944Z,101841.05
2019-04-28T09:29:38.918Z,101846.91
2019-04-28T09:32:28.814Z,101839.92
2019-04-28T09:35:18.572Z,101849.43
2019-04-28T09:38:07.593Z,101853.41
2019-04-28T09:40:57.586Z,101847.73
2019-04-28T09:44:01.375Z,101857.80
2019-04-28T09:46:51.496Z,101859.47
2019-04-28T09:49:41.124Z,101866.97
2019-04-28T09:52:30.847Z,101864.84
2019-04-28T09:55:20.749Z,101873.35
2019-04-28T09:58:09.649Z,101872.98
2019-04-28T10:00:59.204Z,101871.16
2019-04-28T10:03:50.018Z,101873.84
2019-04-28T10:06:39.479Z,101877.95
2019-04-28T10:09:28.780Z,101881.98
2019-04-28T10:12:26.817Z,101881.12
2019-04-28T10:15:09.997Z,101885.15
2019-04-28T10:17:59.915Z,101887.76
2019-04-28T10:20:48.884Z,101890.89
2019-04-28T10:23:41.053Z,101886.41
2019-04-28T10:26:30.643Z,101891.23
2019-04-28T10:29:19.497Z,101895.19
2019-04-28T10:32:08.322Z,101895.52
2019-04-28T10:34:58.128Z,101892.67
2019-04-28T10:37:48.105Z,101899.23
2019-04-28T10:40:43.946Z,101904.86
2019-04-28T10:43:33.270Z,101907.80
2019-04-28T10:46:22.853Z,101910.11
2019-04-28T10:49:12.095Z,101911.58
2019-04-28T10:52:01.161Z,101915.22
2019-04-28T10:54:50.132Z,101917.06
2019-04-28T10:57:40.068Z,101921.47
2019-04-28T11:00:31.008Z,101927.38
2019-04-28T11:03:19.826Z,101914.83
2019-04-28T11:06:09.103Z,101913.48
2019-04-28T11:09:04.054Z,101919.67
2019-04-28T11:11:53.798Z,101923.30
2019-04-28T11:14:43.821Z,101921.94
2019-04-28T11:17:34.783Z,101926.94
2019-04-28T11:20:25.525Z,101926.52
2019-04-28T11:23:15.451Z,101930.45
2019-04-28T11:26:05.121Z,101936.80
2019-04-28T11:28:55.109Z,101938.21
2019-04-28T11:31:44.698Z,101938.19
2019-04-28T11:34:47.097Z,101944.48
2019-04-28T11:37:36.000Z,101941.25
2019-04-28T11:40:25.004Z,101944.77
2019-04-28T11:43:15.663Z,101944.19
2019-04-28T11:46:09.501Z,101944.64
2019-04-28T11:49:00.288Z,101948.15
2019-04-28T11:51:50.993Z,101950.34
2019-04-28T11:54:40.782Z,101947.41
2019-04-28T11:57:30.733Z,101953.45
2019-04-28T12:00:30.737Z,101956.98
2019-04-28T12:03:21.381Z,101954.06
2019-04-28T12:06:12.324Z,101957.05
2019-04-28T12:09:18.714Z,101965.39
2019-04-28T12:12:21.040Z,101959.16
2019-04-28T12:15:21.220Z,101961.08
2019-04-28T12:18:36.525Z,101961.73
2019-04-28T12:21:26.288Z,101965.13
2019-04-28T12:24:17.078Z,101971.69
2019-04-28T12:27:06.708Z,101972.45
2019-04-28T12:29:56.388Z,101972.86
2019-04-28T12:32:45.830Z,101977.21
2019-04-28T12:35:46.691Z,101976.72
2019-04-28T12:38:26.196Z,101979.32
2019-04-28T12:41:15.757Z,101984.72
2019-04-28T12:44:05.269Z,101982.02
2019-04-28T12:46:54.040Z,101984.72
2019-04-28T12:49:55.060Z,101987.82
2019-04-28T12:52:44.187Z,101982.42
2019-04-28T12:55:33.587Z,101986.37
2019-04-28T12:58:23.154Z,101994.08
2019-04-28T13:01:23.277Z,101992.73
2019-04-28T13:04:21.480Z,101995.83
2019-04-28T13:07:11.156Z,102001.04
2019-04-28T13:10:00.635Z,102000.94
2019-04-28T13:12:49.407Z,102002.02
2019-04-28T13:15:38.654Z,102003.97
2019-04-28T13:18:27.580Z,102004.94
2019-04-28T13:21:17.079Z,102007.84
2019-04-28T13:24:07.645Z,102013.95
2019-04-28T13:26:57.039Z,102012.31
2019-04-28T13:29:47.107Z,102013.47
2019-04-28T13:32:37.010Z,102011.08
2019-04-28T13:35:26.619Z,102017.94
2019-04-28T13:38:16.008Z,102010.59
2019-04-28T13:41:07.742Z,102012.24
2019-04-28T13:43:57.865Z,102014.69
2019-04-28T13:46:49.140Z,102015.25
2019-04-28T13:49:51.493Z,102017.30
2019-04-28T13:52:41.278Z,102015.06
2019-04-28T13:56:04.390Z,102018.76
2019-04-28T13:59:16.295Z,102016.42
2019-04-28T14:02:13.237Z,102021.40
2019-04-28T14:05:21.588Z,102021.49
2019-04-28T14:08:11.525Z,102026.11
2019-04-28T14:11:01.221Z,102029.50
2019-04-28T14:13:50.806Z,102038.20
2019-04-28T14:16:41.042Z,102037.52
2019-04-28T14:19:33.160Z,102040.02
2019-04-28T14:22:27.649Z,102042.16
2019-04-28T14:25:20.261Z,102041.09
2019-04-28T14:28:10.640Z,102040.50
2019-04-28T14:31:02.859Z,102040.41
2019-04-28T14:33:53.667Z,102044.75
2019-04-28T14:36:44.404Z,102042.23
2019-04-28T14:39:39.388Z,102046.95
2019-04-28T14:42:33.707Z,102050.05
2019-04-28T14:45:24.439Z,102056.81
2019-04-28T14:48:16.042Z,102056.25
2019-04-28T14:51:10.027Z,102057.97
2019-04-28T14:53:59.767Z,102058.86
2019-04-28T14:56:51.716Z,102062.42
2019-04-28T14:59:47.209Z,102068.33
2019-04-28T15:02:57.287Z,102060.67
2019-04-28T15:06:13.472Z,102057.97
2019-04-28T15:09:19.918Z,102063.38
2019-04-28T15:12:15.914Z,102062.02
2019-04-28T15:15:10.107Z,102062.42
2019-04-28T15:18:03.486Z,102061.92
2019-04-28T15:20:54.068Z,102061.82
2019-04-28T15:23:46.855Z,102065.41
2019-04-28T15:26:42.086Z,102061.36
2019-04-28T15:29:34.985Z,102072.08
2019-04-28T15:32:24.326Z,102071.32
2019-04-28T15:35:15.631Z,102073.92
2019-04-28T15:38:05.299Z,102073.92
2019-04-28T15:40:56.106Z,102075.38
2019-04-28T15:43:46.194Z,102078.97
2019-04-28T15:46:37.410Z,102076.34
2019-04-28T15:49:27.243Z,102075.08
2019-04-28T15:52:16.947Z,102074.72
2019-04-28T15:55:07.800Z,102081.58
2019-04-28T15:57:57.456Z,102085.64
2019-04-28T16:00:48.556Z,102095.27
2019-04-28T16:03:39.465Z,102094.11
2019-04-28T16:06:28.795Z,102093.45
2019-04-28T16:09:19.050Z,102093.72
2019-04-28T16:12:11.021Z,102102.52
2019-04-28T16:15:00.783Z,102100.56
2019-04-28T16:17:49.737Z,102111.14
2019-04-28T16:20:39.354Z,102111.03
2019-04-28T16:23:28.374Z,102115.38
2019-04-28T16:26:17.821Z,102120.21
2019-04-28T16:29:07.782Z,102120.16
2019-04-28T16:31:57.014Z,102120.45
2019-04-28T16:34:46.456Z,102124.87
2019-04-28T16:37:38.914Z,102125.16
2019-04-28T16:40:56.751Z,102129.09
2019-04-28T16:43:51.783Z,102137.38
2019-04-28T16:46:41.508Z,102141.38
2019-04-28T16:49:30.493Z,102146.65
2019-04-28T16:52:19.487Z,102150.11
2019-04-28T16:55:22.366Z,102157.23
2019-04-28T16:58:29.103Z,102159.41
2019-04-28T17:01:29.453Z,102166.48
2019-04-28T17:04:19.048Z,102173.59
2019-04-28T17:07:08.625Z,102178.39
2019-04-28T17:10:00.632Z,102183.30
2019-04-28T17:12:50.313Z,102180.38
2019-04-28T17:15:39.726Z,102190.55
2019-04-28T17:18:29.551Z,102184.55
2019-04-28T17:21:19.128Z,102186.70
2019-04-28T17:24:09.009Z,102183.45
2019-04-28T17:26:58.939Z,102186.02
2019-04-28T17:29:51.047Z,102185.00
2019-04-28T17:32:39.607Z,102182.16
2019-04-28T17:35:28.675Z,102186.83
2019-04-28T17:38:18.213Z,102191.12
2019-04-28T17:41:08.131Z,102196.77
2019-04-28T17:43:57.429Z,102194.41
2019-04-28T17:46:48.657Z,102200.10
2019-04-28T17:49:38.909Z,102202.64
2019-04-28T17:52:28.717Z,102209.22
2019-04-28T17:55:18.327Z,102212.16
2019-04-28T17:58:09.523Z,102212.86
2019-04-28T18:01:15.967Z,102215.47
2019-04-28T18:04:24.402Z,102222.12
2019-04-28T18:07:22.048Z,102223.27
2019-04-28T18:10:12.682Z,102231.75
2019-04-28T18:13:02.499Z,102230.31
2019-04-28T18:16:14.226Z,102238.70
2019-04-28T18:19:07.406Z,102235.83
2019-04-28T18:21:57.389Z,102232.15
2019-04-28T18:24:49.904Z,102243.68
2019-04-28T18:27:39.602Z,102250.19
2019-04-28T18:30:30.321Z,102254.98
2019-04-28T18:33:43.509Z,102260.67
2019-04-28T18:36:40.295Z,102259.99
2019-04-28T18:39:47.667Z,102268.41
2019-04-28T18:42:44.868Z,102273.22
2019-04-28T18:45:33.988Z,102279.83
2019-04-28T18:48:24.084Z,102283.75
2019-04-28T18:51:13.247Z,102290.73
2019-04-28T18:54:02.718Z,102297.73
2019-04-28T18:56:53.878Z,102303.40
2019-04-28T18:59:44.648Z,102305.03
2019-04-28T19:02:42.232Z,102309.41
2019-04-28T19:05:34.897Z,102316.86
2019-04-28T19:08:55.707Z,102323.44
2019-04-28T19:11:48.836Z,102327.88
2019-04-28T19:14:43.049Z,102330.45
2019-04-28T19:17:47.756Z,102331.27
2019-04-28T19:20:37.355Z,102342.72
2019-04-28T19:23:26.698Z,102344.48
2019-04-28T19:26:16.466Z,102351.05
2019-04-28T19:29:05.453Z,102354.11
2019-04-28T19:31:54.523Z,102356.63
2019-04-28T19:34:43.368Z,102363.18
2019-04-28T19:37:32.670Z,102365.28
2019-04-28T19:40:22.348Z,102363.70
2019-04-28T19:43:11.715Z,102369.77
2019-04-28T19:46:02.498Z,102370.47
2019-04-28T19:48:55.009Z,102376.08
2019-04-28T19:51:44.937Z,102380.84
2019-04-28T19:54:37.825Z,102383.77
2019-04-28T19:57:35.004Z,102386.27
2019-04-28T20:00:32.746Z,102390.52
2019-04-28T20:03:22.040Z,102392.16
2019-04-28T20:06:11.804Z,102399.59
2019-04-28T20:09:02.079Z,102394.88
2019-04-28T20:11:51.305Z,102401.38
2019-04-28T20:14:41.177Z,102408.74
2019-04-28T20:17:31.332Z,102416.11
2019-04-28T20:20:21.011Z,102412.30
2019-04-28T20:23:10.117Z,102421.00
2019-04-28T20:25:59.137Z,102428.33
2019-04-28T20:28:49.899Z,102426.30
2019-04-28T20:31:39.205Z,102429.63
2019-04-28T20:34:28.527Z,102434.33
2019-04-28T20:37:33.328Z,102437.17
2019-04-28T20:40:29.675Z,102440.88
2019-04-28T20:43:20.247Z,102432.72
2019-04-28T20:46:09.765Z,102440.39
2019-04-28T20:48:59.817Z,102442.36
2019-04-28T20:51:53.632Z,102445.23
2019-04-28T20:54:47.717Z,102450.31
2019-04-28T20:57:37.543Z,102446.48
2019-04-28T21:00:29.751Z,102452.94
2019-04-28T21:03:20.181Z,102448.12
2019-04-28T21:06:13.893Z,102451.84
2019-04-28T21:09:31.218Z,102446.68
2019-04-28T21:12:23.919Z,102445.43
2019-04-28T21:15:16.593Z,102443.80
2019-04-28T21:18:06.492Z,102445.67
2019-04-28T21:20:56.444Z,102444.47
2019-04-28T21:23:48.659Z,102445.89
2019-04-28T21:26:38.366Z,102447.76
2019-04-28T21:29:28.204Z,102443.36
2019-04-28T21:32:20.014Z,102451.95
2019-04-28T21:35:14.934Z,102457.81
2019-04-28T21:38:04.625Z,102459.20
2019-04-28T21:40:54.210Z,102456.62
2019-04-28T21:44:04.886Z,102470.08
2019-04-28T21:47:01.877Z,102465.24
2019-04-28T21:49:52.077Z,102472.06
2019-04-28T21:52:41.789Z,102469.47
2019-04-28T21:55:35.362Z,102463.78
2019-04-28T21:58:32.913Z,102463.44
2019-04-28T22:01:20.583Z,102468.44
2019-04-28T22:04:12.612Z,102476.14
2019-04-28T22:07:02.550Z,102478.47
2019-04-28T22:09:53.893Z,102477.69
2019-04-28T22:12:44.475Z,102492.47
2019-04-28T22:15:33.802Z,102491.69
2019-04-28T22:18:23.104Z,102489.56
2019-04-28T22:21:12.132Z,102488.73
2019-04-28T22:24:12.575Z,102493.33
2019-04-28T22:27:01.766Z,102488.03
2019-04-28T22:29:50.770Z,102488.14
2019-04-28T22:32:40.751Z,102489.05
2019-04-28T22:35:31.342Z,102498.98
2019-04-28T22:38:20.261Z,102497.30
2019-04-28T22:41:09.333Z,102491.55
2019-04-28T22:44:00.249Z,102481.89
2019-04-28T22:46:49.588Z,102491.31
2019-04-28T22:49:39.410Z,102494.95
2019-04-28T22:52:28.747Z,102485.69
2019-04-28T22:55:22.422Z,102492.90
2019-04-28T22:58:29.424Z,102492.14
2019-04-28T23:01:37.192Z,102491.78
2019-04-28T23:04:50.991Z,102503.39
2019-04-28T23:07:40.352Z,102503.50
2019-04-28T23:10:29.745Z,102505.80
2019-04-28T23:13:19.478Z,102504.53
2019-04-28T23:16:09.549Z,102508.64
2019-04-28T23:18:59.093Z,102513.14
2019-04-28T23:22:05.854Z,102514.55
2019-04-28T23:24:55.250Z,102517.70
2019-04-28T23:27:45.068Z,102519.58
2019-04-28T23:30:43.431Z,102520.97
2019-04-28T23:33:33.100Z,102527.27
2019-04-28T23:36:22.451Z,102522.87
2019-04-28T23:39:13.277Z,102526.93
2019-04-28T23:42:27.437Z,102527.45
2019-04-28T23:45:18.122Z,102532.39
2019-04-28T23:48:07.192Z,102534.28
2019-04-28T23:51:15.033Z,102532.08
2019-04-28T23:54:06.507Z,102531.67
2019-04-28T23:56:55.988Z,102531.76
2019-04-28T23:59:45.823Z,102536.72
